Terminal Aerodrome Forecast
Issued by NWS

Home | Current Version | Previous Version | Text Only | Print | Product List | Glossary On
Versions: 1 2 3 4 5 6 7 8 9 10 11 12 13 14 15 16 17
000
FTUS42 KMLB 250543
TAFLEE
TAF
KLEE 250543Z 2506/2606 22010KT P6SM VCSH FEW025 SCT060 OVC120
     FM251500 26012G18KT P6SM SCT040 BKN060 OVC120
     FM251800 29013G20KT P6SM FEW050 SCT120
     FM260000 27008KT P6SM SKC=

USA.gov is the U.S. government's official web portal to all federal, state and local government web resources and services.